Time;durP1;ratioP1;P1;durP2;ratioP2;P2;SDS_P1;SDS_P2;PMS_P1;PMS_P2;Temp;Humidity;BMP_temperature;BMP_pressure;BME280_temperature;BME280_humidity;BME280_pressure;Samples;Min_cycle;Max_cycle;Signal;HPM_P1;HPM_P2
2021/10/27 00:01:12;;;;;;;7.53;5.70;;;16.50;73.50;;;;;;4822457;29;20087;-84
2021/10/27 00:03:38;;;;;;;7.13;5.45;;;16.50;73.50;;;;;;4823894;29;20522;-83
2021/10/27 00:06:04;;;;;;;5.80;4.55;;;16.50;74.10;;;;;;4806918;29;20540;-84
2021/10/27 00:08:31;;;;;;;6.57;5.50;;;16.50;73.50;;;;;;4821661;29;20174;-83
2021/10/27 00:10:57;;;;;;;6.13;4.68;;;16.50;73.50;;;;;;4804505;29;20046;-83
2021/10/27 00:13:23;;;;;;;7.13;5.63;;;16.50;73.50;;;;;;4821989;29;20030;-83
2021/10/27 00:15:49;;;;;;;7.30;5.32;;;16.50;73.50;;;;;;4807185;29;20050;-83
2021/10/27 00:18:16;;;;;;;7.05;5.05;;;16.50;73.50;;;;;;4821847;29;20026;-83
2021/10/27 00:20:41;;;;;;;6.60;4.93;;;16.50;73.50;;;;;;4807391;29;20030;-83
2021/10/27 00:23:07;;;;;;;6.50;5.28;;;16.50;73.50;;;;;;4822212;29;20381;-83
2021/10/27 00:25:33;;;;;;;7.30;6.03;;;16.50;73.60;;;;;;4822101;29;20480;-82
2021/10/27 00:27:58;;;;;;;7.15;5.30;;;16.50;73.50;;;;;;4822320;29;20042;-84
2021/10/27 00:30:24;;;;;;;6.50;5.18;;;16.50;73.60;;;;;;4805135;29;20516;-83
2021/10/27 00:32:51;;;;;;;5.70;4.80;;;16.50;73.60;;;;;;4823829;29;20072;-83
2021/10/27 00:35:17;;;;;;;6.10;4.93;;;16.50;73.60;;;;;;4801642;29;20122;-82
2021/10/27 00:37:44;;;;;;;6.07;4.95;;;16.50;73.60;;;;;;4791988;29;20069;-84
2021/10/27 00:40:11;;;;;;;6.80;5.38;;;16.50;73.60;;;;;;4797119;29;20091;-83
2021/10/27 00:42:37;;;;;;;7.10;5.05;;;16.50;73.60;;;;;;4809763;29;20043;-83
2021/10/27 00:45:04;;;;;;;8.63;5.90;;;16.50;73.60;;;;;;4794113;29;20034;-83
2021/10/27 00:47:36;;;;;;;6.70;4.80;;;16.50;73.60;;;;;;4810643;29;20555;-83
2021/10/27 00:50:03;;;;;;;6.72;4.93;;;16.50;73.60;;;;;;4809142;29;20038;-84
2021/10/27 00:52:31;;;;;;;7.22;5.45;;;16.50;73.60;;;;;;4823024;29;20041;-83
2021/10/27 00:54:57;;;;;;;6.05;4.70;;;16.50;73.70;;;;;;4816523;29;20491;-83
2021/10/27 00:57:24;;;;;;;7.65;5.55;;;16.50;73.60;;;;;;4809090;29;20530;-83
2021/10/27 00:59:51;;;;;;;6.68;4.85;;;16.50;73.70;;;;;;4824544;29;20050;-83
2021/10/27 01:02:18;;;;;;;6.60;5.40;;;16.50;73.70;;;;;;4823480;29;20026;-84
2021/10/27 01:04:45;;;;;;;6.45;5.07;;;16.50;73.70;;;;;;4824333;29;20117;-83
2021/10/27 01:07:14;;;;;;;5.97;4.63;;;16.50;73.70;;;;;;4802343;29;20399;-83
2021/10/27 01:09:40;;;;;;;6.47;4.72;;;16.50;73.70;;;;;;4809736;29;20680;-83
2021/10/27 01:12:07;;;;;;;6.50;5.47;;;16.50;73.70;;;;;;4808982;29;20030;-83
2021/10/27 01:14:41;;;;;;;6.18;4.93;;;16.50;73.70;;;;;;4824435;29;20490;-83
2021/10/27 01:17:09;;;;;;;6.68;5.35;;;16.50;73.80;;;;;;4840498;29;20034;-83
2021/10/27 01:19:51;;;;;;;5.85;5.03;;;16.50;73.70;;;;;;4826391;29;20045;-83
2021/10/27 01:22:23;;;;;;;6.72;4.88;;;16.50;73.80;;;;;;4812489;29;20038;-83
2021/10/27 01:24:49;;;;;;;6.13;5.28;;;16.60;73.80;;;;;;4809121;29;20057;-83
2021/10/27 01:27:15;;;;;;;6.63;5.10;;;16.50;73.80;;;;;;4828099;29;20113;-83
2021/10/27 01:29:41;;;;;;;6.25;5.55;;;16.60;73.80;;;;;;4838414;29;20113;-84
2021/10/27 01:32:10;;;;;;;6.70;4.47;;;16.50;73.80;;;;;;4843859;29;20530;-83
2021/10/27 01:34:36;;;;;;;6.45;4.88;;;16.60;73.90;;;;;;4824374;29;20065;-83
2021/10/27 01:37:05;;;;;;;6.30;5.25;;;16.50;73.80;;;;;;4819546;29;20484;-82
2021/10/27 01:39:31;;;;;;;6.18;4.88;;;16.50;73.80;;;;;;4807245;29;20066;-83
2021/10/27 01:41:56;;;;;;;6.60;4.78;;;16.60;73.90;;;;;;4825820;29;20050;-83
2021/10/27 01:44:22;;;;;;;6.32;5.10;;;16.60;73.90;;;;;;4824077;29;20403;-83
2021/10/27 01:46:49;;;;;;;7.15;5.15;;;16.50;73.80;;;;;;4809538;29;20070;-82
2021/10/27 01:49:15;;;;;;;7.63;5.00;;;16.60;73.90;;;;;;4809056;29;20081;-84
2021/10/27 01:51:42;;;;;;;6.15;4.80;;;16.60;74.50;;;;;;4824382;29;20034;-83
2021/10/27 01:54:07;;;;;;;6.75;4.65;;;16.60;73.90;;;;;;4809201;29;20046;-84
2021/10/27 01:56:34;;;;;;;6.78;5.03;;;16.60;73.90;;;;;;4817752;29;20104;-83
2021/10/27 01:59:00;;;;;;;5.95;4.57;;;16.50;73.90;;;;;;4839331;29;20565;-83
2021/10/27 02:01:27;;;;;;;5.78;4.43;;;16.60;73.90;;;;;;4809614;29;20035;-83
2021/10/27 02:03:55;;;;;;;6.38;5.20;;;16.60;73.90;;;;;;4821123;29;20512;-84
2021/10/27 02:06:22;;;;;;;5.80;4.57;;;16.60;73.90;;;;;;4823884;29;20035;-83
2021/10/27 02:08:48;;;;;;;5.63;4.50;;;16.60;73.90;;;;;;4822275;29;20038;-84
2021/10/27 02:11:15;;;;;;;5.75;4.55;;;16.60;74.60;;;;;;4817316;29;20134;-83
2021/10/27 02:13:41;;;;;;;6.32;4.88;;;16.60;73.90;;;;;;4808846;29;20563;-83
2021/10/27 02:16:09;;;;;;;5.60;4.18;;;16.60;73.90;;;;;;4809046;29;20051;-83
2021/10/27 02:18:35;;;;;;;5.97;4.68;;;16.60;73.90;;;;;;4823961;29;20049;-83
2021/10/27 02:21:03;;;;;;;4.78;3.90;;;16.60;73.90;;;;;;4791390;29;20481;-83
2021/10/27 02:23:29;;;;;;;5.35;3.97;;;16.60;73.90;;;;;;4823979;29;20048;-83
2021/10/27 02:25:54;;;;;;;5.32;4.07;;;16.60;74.00;;;;;;4809269;29;20062;-84
2021/10/27 02:28:20;;;;;;;5.38;3.78;;;16.60;74.00;;;;;;4808981;29;20033;-83
2021/10/27 02:30:46;;;;;;;5.70;4.15;;;16.60;74.00;;;;;;4808675;29;20045;-83
2021/10/27 02:33:14;;;;;;;5.47;4.25;;;16.60;74.00;;;;;;4809318;29;20154;-84
2021/10/27 02:35:40;;;;;;;6.03;4.20;;;16.60;74.00;;;;;;4824202;29;20432;-84
2021/10/27 02:38:10;;;;;;;5.57;4.28;;;16.60;74.00;;;;;;4823819;29;20195;-84
2021/10/27 02:40:36;;;;;;;4.90;4.07;;;16.60;74.00;;;;;;4819892;29;20601;-84
2021/10/27 02:43:02;;;;;;;6.13;4.55;;;16.60;74.00;;;;;;4808967;29;20039;-84
2021/10/27 02:45:28;;;;;;;5.22;4.13;;;16.60;74.00;;;;;;4823120;29;20042;-83
2021/10/27 02:47:54;;;;;;;5.10;3.80;;;16.60;74.00;;;;;;4823409;29;20042;-84
2021/10/27 02:50:21;;;;;;;4.93;3.80;;;16.60;74.00;;;;;;4808771;29;20053;-83
2021/10/27 02:52:48;;;;;;;5.25;3.65;;;16.60;74.60;;;;;;4818258;29;20126;-83
2021/10/27 02:55:15;;;;;;;5.05;3.50;;;16.70;74.10;;;;;;4821738;29;20047;-84
2021/10/27 02:57:41;;;;;;;4.60;3.63;;;16.60;74.00;;;;;;4808149;29;20145;-82
2021/10/27 03:00:08;;;;;;;4.90;3.55;;;16.60;74.00;;;;;;4808595;29;20535;-83
2021/10/27 03:02:35;;;;;;;4.70;3.67;;;16.60;74.00;;;;;;4823998;29;20113;-84
2021/10/27 03:05:01;;;;;;;6.28;4.30;;;16.60;74.10;;;;;;4817382;29;20070;-84
2021/10/27 03:07:27;;;;;;;5.03;3.75;;;16.70;74.10;;;;;;4823177;29;20045;-84
2021/10/27 03:09:53;;;;;;;5.43;3.80;;;16.60;74.00;;;;;;4822981;29;20035;-84
2021/10/27 03:12:18;;;;;;;5.22;3.50;;;16.70;74.10;;;;;;4824250;29;20063;-83
2021/10/27 03:14:45;;;;;;;4.13;3.45;;;16.70;74.10;;;;;;4822532;29;20060;-83
2021/10/27 03:17:11;;;;;;;4.50;3.38;;;16.70;74.10;;;;;;4804777;29;20113;-83
2021/10/27 03:19:37;;;;;;;4.50;3.35;;;16.70;74.10;;;;;;4819338;29;20034;-83
2021/10/27 03:22:03;;;;;;;4.95;3.42;;;16.70;74.10;;;;;;4823136;29;20050;-84
2021/10/27 03:24:30;;;;;;;4.90;3.33;;;16.70;74.10;;;;;;4824348;29;20035;-83
2021/10/27 03:26:56;;;;;;;4.63;3.45;;;16.60;74.00;;;;;;4824058;29;20039;-83
2021/10/27 03:29:22;;;;;;;4.88;3.38;;;16.60;74.00;;;;;;4807335;29;20031;-83
2021/10/27 03:31:48;;;;;;;5.00;3.42;;;16.70;74.10;;;;;;4808103;29;20476;-83
2021/10/27 03:34:15;;;;;;;4.57;3.45;;;16.60;74.00;;;;;;4807769;29;20054;-84
2021/10/27 03:36:42;;;;;;;3.53;2.88;;;16.60;74.00;;;;;;4805175;29;20544;-84
2021/10/27 03:39:08;;;;;;;3.92;2.92;;;16.60;74.00;;;;;;4821776;29;20071;-84
2021/10/27 03:41:33;;;;;;;5.22;3.58;;;16.60;74.00;;;;;;4822000;29;20026;-84
2021/10/27 03:43:59;;;;;;;4.53;3.17;;;16.70;74.10;;;;;;4822113;29;20504;-83
2021/10/27 03:46:25;;;;;;;4.25;3.08;;;16.70;74.10;;;;;;4807804;29;20037;-83
2021/10/27 03:48:52;;;;;;;4.40;3.22;;;16.70;74.70;;;;;;4823165;29;20041;-83
2021/10/27 03:51:18;;;;;;;4.07;3.00;;;16.60;74.00;;;;;;4822744;29;20046;-84
2021/10/27 03:53:44;;;;;;;3.47;2.78;;;16.60;74.00;;;;;;4823909;29;20125;-84
2021/10/27 03:56:10;;;;;;;3.65;2.70;;;16.70;74.10;;;;;;4807582;29;20133;-82
2021/10/27 03:58:38;;;;;;;4.50;2.85;;;16.70;74.10;;;;;;4807607;29;20098;-84
2021/10/27 04:01:03;;;;;;;3.97;2.50;;;16.70;74.10;;;;;;4807632;29;20130;-83
2021/10/27 04:03:29;;;;;;;3.70;2.67;;;16.70;74.10;;;;;;4822679;29;20333;-83
2021/10/27 04:05:56;;;;;;;3.30;2.53;;;16.70;74.10;;;;;;4822418;29;20093;-83
2021/10/27 04:08:23;;;;;;;4.50;2.95;;;16.70;74.10;;;;;;4815127;29;20041;-84
2021/10/27 04:10:49;;;;;;;3.47;2.55;;;16.70;74.10;;;;;;4806812;29;20042;-84
2021/10/27 04:13:17;;;;;;;3.40;2.45;;;16.70;74.10;;;;;;4822568;29;20479;-83
2021/10/27 04:15:43;;;;;;;3.15;2.47;;;16.70;74.10;;;;;;4806755;29;20495;-83
2021/10/27 04:18:09;;;;;;;2.92;2.25;;;16.70;74.10;;;;;;4807915;29;20068;-83
2021/10/27 04:20:36;;;;;;;3.88;2.30;;;16.70;74.10;;;;;;4807059;29;20026;-83
2021/10/27 04:23:01;;;;;;;3.92;2.60;;;16.70;74.70;;;;;;4807261;29;20106;-84
2021/10/27 04:25:27;;;;;;;4.38;2.60;;;16.70;74.00;;;;;;4807152;29;20468;-83
2021/10/27 04:27:53;;;;;;;4.40;2.75;;;16.70;74.10;;;;;;4807252;29;20038;-83
2021/10/27 04:30:19;;;;;;;3.50;2.58;;;16.70;74.10;;;;;;4821931;29;20066;-84
2021/10/27 04:32:45;;;;;;;3.20;2.47;;;16.70;74.10;;;;;;4806363;29;20110;-83
2021/10/27 04:35:11;;;;;;;3.67;2.42;;;16.70;74.10;;;;;;4810161;29;20086;-83
2021/10/27 04:37:41;;;;;;;3.40;2.22;;;16.70;74.10;;;;;;4806666;29;20114;-84
2021/10/27 04:40:10;;;;;;;2.83;2.03;;;16.70;74.10;;;;;;4825109;29;20509;-82
2021/10/27 04:42:37;;;;;;;4.18;2.50;;;16.70;74.10;;;;;;4824142;29;20053;-82
2021/10/27 04:45:05;;;;;;;3.15;2.22;;;16.70;74.10;;;;;;4824843;29;20042;-84
2021/10/27 04:47:31;;;;;;;3.17;2.22;;;16.70;74.10;;;;;;4821256;29;20034;-83
2021/10/27 04:49:57;;;;;;;3.50;2.20;;;16.70;74.10;;;;;;4821030;29;20539;-82
2021/10/27 04:52:24;;;;;;;4.07;2.28;;;16.70;74.10;;;;;;4794191;29;20040;-82
2021/10/27 04:54:50;;;;;;;3.60;2.30;;;16.70;74.10;;;;;;4826219;29;20054;-81
2021/10/27 04:57:16;;;;;;;3.42;2.10;;;16.70;74.10;;;;;;4827237;29;20033;-82
2021/10/27 04:59:43;;;;;;;3.00;2.20;;;16.70;74.10;;;;;;4827206;29;20113;-82
2021/10/27 05:02:10;;;;;;;3.10;2.30;;;16.70;74.10;;;;;;4811403;29;20403;-82
2021/10/27 05:04:36;;;;;;;3.25;2.03;;;16.70;74.10;;;;;;4812397;29;20563;-81
2021/10/27 05:07:03;;;;;;;3.28;2.30;;;16.70;74.10;;;;;;4843328;29;20038;-82
2021/10/27 05:09:30;;;;;;;2.80;1.88;;;16.70;74.00;;;;;;4827918;29;20041;-82
2021/10/27 05:11:55;;;;;;;3.50;2.20;;;16.70;74.00;;;;;;4809184;29;20061;-83
2021/10/27 05:14:21;;;;;;;3.90;2.40;;;16.70;74.00;;;;;;4818095;29;20070;-85
2021/10/27 05:16:47;;;;;;;2.92;2.05;;;16.70;74.00;;;;;;4797155;29;20775;-82
2021/10/27 05:19:13;;;;;;;3.00;2.05;;;16.70;74.00;;;;;;4812475;29;20042;-80
2021/10/27 05:21:39;;;;;;;3.42;2.28;;;16.70;74.00;;;;;;4843172;29;20042;-80
2021/10/27 05:24:05;;;;;;;2.75;2.13;;;16.80;74.10;;;;;;4808485;29;20500;-81
2021/10/27 05:26:31;;;;;;;2.75;2.00;;;16.70;74.00;;;;;;4823326;29;20034;-81
2021/10/27 05:28:57;;;;;;;2.58;2.05;;;16.70;74.10;;;;;;4827152;29;20042;-80
2021/10/27 05:31:22;;;;;;;3.45;2.10;;;16.80;74.10;;;;;;4827447;29;20095;-82
2021/10/27 05:33:49;;;;;;;3.35;2.17;;;16.70;74.00;;;;;;4812108;29;20387;-85
2021/10/27 05:36:15;;;;;;;3.03;2.13;;;16.70;74.00;;;;;;4843256;29;20136;-80
2021/10/27 05:38:41;;;;;;;4.18;2.22;;;16.70;74.00;;;;;;4825845;29;20542;-80
2021/10/27 05:41:07;;;;;;;3.13;1.88;;;16.70;74.00;;;;;;4810981;29;20029;-80
2021/10/27 05:43:35;;;;;;;3.30;2.10;;;16.70;74.00;;;;;;4811927;29;20060;-79
2021/10/27 05:46:01;;;;;;;3.17;1.90;;;16.80;74.10;;;;;;4826943;29;20038;-80
2021/10/27 05:48:32;;;;;;;3.03;2.00;;;16.80;74.10;;;;;;4827200;29;20037;-80
2021/10/27 05:56:22;;;;;;;2.65;1.88;;;16.70;74.00;;;;;;4830062;29;20098;-80
2021/10/27 05:58:48;;;;;;;2.70;2.03;;;16.70;74.00;;;;;;4812059;29;20030;-80
2021/10/27 06:01:14;;;;;;;3.45;1.90;;;16.80;74.10;;;;;;4843922;29;20092;-80
2021/10/27 06:03:40;;;;;;;3.45;2.00;;;16.70;74.00;;;;;;4843235;29;20037;-80
2021/10/27 06:06:07;;;;;;;3.47;2.20;;;16.80;74.10;;;;;;4843101;29;20034;-80
2021/10/27 06:08:33;;;;;;;2.22;2.00;;;16.80;74.10;;;;;;4843155;29;20030;-80
2021/10/27 06:11:07;;;;;;;2.78;1.95;;;16.70;74.00;;;;;;4811793;29;20118;-79
2021/10/27 06:13:35;;;;;;;3.42;2.10;;;16.80;74.10;;;;;;4823047;29;20076;-79
2021/10/27 06:16:02;;;;;;;2.92;1.90;;;16.80;74.00;;;;;;4811283;29;20049;-81
2021/10/27 06:18:28;;;;;;;2.63;1.95;;;16.70;74.00;;;;;;4811386;29;20079;-80
2021/10/27 06:20:54;;;;;;;3.67;2.08;;;16.70;74.00;;;;;;4842937;29;20022;-81
2021/10/27 06:23:22;;;;;;;3.10;1.80;;;16.70;74.00;;;;;;4842763;29;20026;-80
2021/10/27 06:25:49;;;;;;;2.22;1.80;;;16.80;74.00;;;;;;4842626;29;20395;-81
2021/10/27 06:28:21;;;;;;;2.85;2.15;;;16.70;73.90;;;;;;4826855;29;20037;-81
2021/10/27 06:30:57;;;;;;;3.70;1.70;;;16.70;74.60;;;;;;4827068;29;20045;-80
2021/10/27 06:33:49;;;;;;;3.17;2.05;;;16.80;74.00;;;;;;4827605;29;20053;-80
2021/10/27 06:46:39;;;;;;;3.47;2.10;;;16.70;73.90;;;;;;4828866;29;20030;-81
2021/10/27 06:49:06;;;;;;;3.85;1.98;;;16.80;74.00;;;;;;4825802;29;20030;-80
2021/10/27 06:51:33;;;;;;;2.78;2.10;;;16.70;74.00;;;;;;4826495;29;20042;-80
2021/10/27 06:53:59;;;;;;;2.92;2.00;;;16.80;74.10;;;;;;4811098;29;20038;-81
2021/10/27 06:56:25;;;;;;;3.33;2.05;;;16.80;74.10;;;;;;4826319;29;20042;-81
2021/10/27 06:59:01;;;;;;;3.22;2.13;;;16.80;74.10;;;;;;4841735;29;20558;-80
2021/10/27 07:15:09;;;;;;;4.03;2.42;;;16.80;74.00;;;;;;4842311;29;20062;-86
2021/10/27 07:17:26;;;;;;;3.30;2.20;;;16.80;74.00;;;;;;4840949;29;20049;-85
2021/10/27 07:19:52;;;;;;;2.97;2.03;;;16.70;73.90;;;;;;4841933;29;20494;-86
2021/10/27 07:22:18;;;;;;;3.00;2.10;;;16.70;74.00;;;;;;4812120;29;20050;-86
2021/10/27 07:24:44;;;;;;;3.28;2.40;;;16.80;74.10;;;;;;4842759;29;20042;-86
2021/10/27 07:27:11;;;;;;;3.55;2.58;;;16.70;74.00;;;;;;4811642;29;20030;-83
2021/10/27 07:29:40;;;;;;;3.35;2.17;;;16.80;74.10;;;;;;4826766;29;20109;-85
2021/10/27 07:32:08;;;;;;;3.45;2.25;;;16.70;74.00;;;;;;4811465;29;20479;-86
2021/10/27 07:34:39;;;;;;;3.10;2.30;;;16.80;74.10;;;;;;4811360;29;20058;-86
2021/10/27 07:40:04;;;;;;;3.65;2.45;;;16.70;74.00;;;;;;4842619;29;20041;-85
2021/10/27 07:42:29;;;;;;;4.18;2.38;;;16.80;74.00;;;;;;4824711;29;20042;-86
2021/10/27 07:44:55;;;;;;;3.55;2.53;;;16.70;74.00;;;;;;4809784;29;20042;-86
2021/10/27 07:47:21;;;;;;;3.33;2.47;;;16.80;74.10;;;;;;4810827;29;20037;-86
2021/10/27 07:49:50;;;;;;;3.92;2.50;;;16.70;74.00;;;;;;4808235;29;20087;-85
2021/10/27 07:52:16;;;;;;;4.97;2.42;;;16.80;74.00;;;;;;4825531;29;20069;-85
2021/10/27 07:54:42;;;;;;;4.03;2.10;;;16.70;74.00;;;;;;4811322;29;20069;-84
2021/10/27 07:57:08;;;;;;;2.58;1.92;;;16.80;74.00;;;;;;4826568;29;20109;-86
2021/10/27 07:59:34;;;;;;;3.70;2.50;;;16.80;74.00;;;;;;4811104;29;20120;-86
2021/10/27 08:02:04;;;;;;;4.00;2.28;;;16.80;73.90;;;;;;4821166;29;20061;-85
2021/10/27 08:04:30;;;;;;;4.90;2.38;;;16.80;73.90;;;;;;4826115;29;20063;-85
2021/10/27 08:06:56;;;;;;;3.85;2.05;;;16.80;73.90;;;;;;4808003;29;20030;-83
2021/10/27 08:09:21;;;;;;;4.18;2.25;;;16.80;73.90;;;;;;4811044;29;20066;-86
2021/10/27 08:11:49;;;;;;;3.22;2.15;;;16.80;73.90;;;;;;4826217;29;20036;-83
2021/10/27 08:14:15;;;;;;;3.05;2.10;;;16.80;74.00;;;;;;4808058;29;20042;-85
2021/10/27 08:16:41;;;;;;;3.92;2.45;;;16.80;73.90;;;;;;4824006;29;20503;-85
2021/10/27 08:19:08;;;;;;;4.20;2.58;;;16.80;73.90;;;;;;4810616;29;20460;-85
2021/10/27 08:21:34;;;;;;;3.38;2.28;;;16.90;73.90;;;;;;4824983;29;20091;-84
2021/10/27 08:24:01;;;;;;;4.43;2.40;;;16.80;73.90;;;;;;4824993;29;20101;-81
2021/10/27 08:26:27;;;;;;;3.28;2.20;;;16.80;73.90;;;;;;4840588;29;20030;-82
2021/10/27 08:29:00;;;;;;;3.85;2.30;;;16.80;73.80;;;;;;4808760;29;20086;-81
2021/10/27 08:36:25;;;;;;;3.13;2.33;;;16.80;73.80;;;;;;4824437;29;20077;-82
2021/10/27 08:38:55;;;;;;;3.08;2.45;;;16.90;73.90;;;;;;4824453;29;20114;-82
2021/10/27 08:41:21;;;;;;;3.83;2.60;;;16.90;73.90;;;;;;4840783;29;20037;-82
2021/10/27 08:43:47;;;;;;;4.30;2.45;;;16.90;73.90;;;;;;4817967;29;20022;-82
2021/10/27 08:46:13;;;;;;;3.60;2.40;;;16.90;73.90;;;;;;4837868;29;20052;-81
2021/10/27 08:48:42;;;;;;;4.40;2.42;;;16.90;73.90;;;;;;4821284;29;20113;-81
2021/10/27 08:51:10;;;;;;;4.22;2.60;;;16.90;73.90;;;;;;4836775;29;20430;-82
2021/10/27 08:53:37;;;;;;;4.20;2.47;;;16.90;73.80;;;;;;4824362;29;20030;-82
2021/10/27 08:56:05;;;;;;;3.80;2.53;;;16.90;73.80;;;;;;4809137;29;20517;-82
2021/10/27 08:59:09;;;;;;;3.95;2.65;;;16.90;73.80;;;;;;4816738;29;20109;-81
2021/10/27 09:01:44;;;;;;;3.80;2.42;;;16.90;73.80;;;;;;4827346;29;20054;-82
2021/10/27 09:43:07;;;;;;;3.92;2.60;;;17.10;73.80;;;;;;4836908;29;20026;-81
2021/10/27 10:05:00;;;;;;;4.30;2.67;;;17.20;73.70;;;;;;4836338;29;20038;-82
2021/10/27 10:07:27;;;;;;;3.95;2.90;;;17.20;73.70;;;;;;4843536;29;20033;-82
2021/10/27 10:09:53;;;;;;;3.83;2.78;;;17.20;73.70;;;;;;4818936;29;20570;-80
2021/10/27 10:12:19;;;;;;;4.18;2.80;;;17.30;73.80;;;;;;4820134;29;20471;-82
2021/10/27 10:14:49;;;;;;;5.15;3.00;;;17.30;73.80;;;;;;4810867;29;20046;-81
2021/10/27 10:17:16;;;;;;;4.10;2.70;;;17.30;73.80;;;;;;4789971;29;20506;-82
2021/10/27 10:19:43;;;;;;;4.68;2.88;;;17.30;73.80;;;;;;4826558;29;20022;-82
2021/10/27 10:22:28;;;;;;;4.25;3.13;;;17.30;73.80;;;;;;4842651;29;20049;-83
2021/10/27 10:25:07;;;;;;;4.47;2.80;;;17.40;74.00;;;;;;4810297;29;20403;-82
2021/10/27 10:27:38;;;;;;;3.90;2.60;;;17.40;73.80;;;;;;4842260;29;20041;-83
2021/10/27 10:30:24;;;;;;;4.07;2.78;;;17.40;73.90;;;;;;4821078;29;20510;-80
2021/10/27 10:33:11;;;;;;;3.58;2.70;;;17.40;74.00;;;;;;4816720;29;20420;-83
2021/10/27 10:36:16;;;;;;;4.45;3.13;;;17.40;74.00;;;;;;4842486;29;20042;-82
2021/10/27 10:38:48;;;;;;;4.63;2.67;;;17.50;74.10;;;;;;4837509;29;20042;-82
2021/10/27 10:42:06;;;;;;;4.05;2.85;;;17.50;73.90;;;;;;4826329;29;20045;-82
2021/10/27 11:41:10;;;;;;;3.70;3.00;;;17.90;74.00;;;;;;4825383;29;20061;-83
2021/10/27 11:46:56;;;;;;;3.85;2.75;;;17.90;74.00;;;;;;4832753;29;20037;-81
2021/10/27 11:49:28;;;;;;;3.58;2.53;;;17.90;74.00;;;;;;4825677;29;20057;-81
2021/10/27 11:51:55;;;;;;;3.60;2.65;;;18.00;73.90;;;;;;4841789;29;20049;-82
2021/10/27 11:54:25;;;;;;;3.65;2.53;;;18.00;73.80;;;;;;4841235;29;20037;-82
2021/10/27 11:56:52;;;;;;;4.20;2.63;;;18.00;73.80;;;;;;4817243;29;20042;-83
2021/10/27 11:59:18;;;;;;;3.80;2.85;;;18.10;73.90;;;;;;4822893;29;20034;-81
2021/10/27 12:01:51;;;;;;;3.20;2.55;;;18.10;73.80;;;;;;4809875;29;20380;-82
2021/10/27 12:04:18;;;;;;;3.17;2.35;;;18.10;73.80;;;;;;4824522;29;20038;-81
2021/10/27 12:07:02;;;;;;;3.67;2.67;;;18.10;73.70;;;;;;4824904;29;20037;-82
2021/10/27 12:17:59;;;;;;;3.78;2.53;;;18.20;73.70;;;;;;4821424;29;20041;-81
2021/10/27 12:20:33;;;;;;;3.33;2.42;;;18.20;73.70;;;;;;4841050;29;20029;-81
2021/10/27 12:22:59;;;;;;;3.63;2.63;;;18.20;73.60;;;;;;4824467;29;20037;-81
2021/10/27 12:25:26;;;;;;;2.65;2.40;;;18.20;73.60;;;;;;4808741;29;20138;-81
2021/10/27 12:27:58;;;;;;;3.88;2.70;;;18.20;73.50;;;;;;4809192;29;20030;-80
2021/10/27 12:30:24;;;;;;;3.85;2.70;;;18.20;73.50;;;;;;4825135;29;20566;-81
2021/10/27 12:32:52;;;;;;;3.05;2.33;;;18.30;73.50;;;;;;4809438;29;20030;-81
2021/10/27 12:35:18;;;;;;;3.85;2.75;;;18.30;73.50;;;;;;4840011;29;20062;-81
2021/10/27 12:37:48;;;;;;;3.15;2.42;;;18.40;73.50;;;;;;4841193;29;20034;-81
2021/10/27 12:40:36;;;;;;;3.28;2.40;;;18.40;73.50;;;;;;4840387;29;20570;-81
2021/10/27 12:43:06;;;;;;;3.38;2.60;;;18.40;73.50;;;;;;4840803;29;20078;-81
2021/10/27 12:45:44;;;;;;;2.83;2.33;;;18.40;73.30;;;;;;4820603;29;20480;-81
2021/10/27 12:48:11;;;;;;;3.78;2.55;;;18.40;73.40;;;;;;4822473;29;20030;-82
2021/10/27 12:50:55;;;;;;;4.10;2.40;;;18.40;73.30;;;;;;4823821;29;20026;-81
2021/10/27 12:53:42;;;;;;;4.18;2.63;;;18.40;73.40;;;;;;4824395;29;20030;-81
2021/10/27 12:56:24;;;;;;;3.58;2.50;;;18.50;73.30;;;;;;4824205;29;20420;-81
2021/10/27 12:59:01;;;;;;;3.80;2.63;;;18.50;73.40;;;;;;4834182;29;20104;-81
2021/10/27 13:14:48;;;;;;;3.65;2.63;;;18.60;73.20;;;;;;4840239;29;20030;-80
2021/10/27 13:20:31;;;;;;;3.27;2.50;;;18.60;73.00;;;;;;4817129;29;20056;-80
2021/10/27 13:23:12;;;;;;;3.65;2.55;;;18.60;72.90;;;;;;4827187;29;20037;-81
2021/10/27 13:31:15;;;;;;;4.22;2.45;;;18.70;72.90;;;;;;4811758;29;20483;-81
2021/10/27 13:33:42;;;;;;;3.92;2.65;;;18.70;72.80;;;;;;4835150;29;20055;-81
2021/10/27 13:36:08;;;;;;;3.72;2.50;;;18.70;72.80;;;;;;4841464;29;20095;-80
2021/10/27 13:38:36;;;;;;;3.42;2.53;;;18.80;72.90;;;;;;4843348;29;20033;-81
2021/10/27 13:41:04;;;;;;;3.38;2.67;;;18.70;72.80;;;;;;4843976;29;20037;-81
2021/10/27 13:43:46;;;;;;;3.50;2.60;;;18.80;72.90;;;;;;4827090;29;20034;-81
2021/10/27 14:10:06;;;;;;;3.60;2.67;;;18.90;72.60;;;;;;4810071;29;20083;-81
2021/10/27 14:12:45;;;;;;;3.45;2.45;;;19.00;72.70;;;;;;4826316;29;20038;-80
2021/10/27 14:15:41;;;;;;;3.25;2.42;;;19.00;72.70;;;;;;4842855;29;20289;-80
2021/10/27 14:47:57;;;;;;;3.85;2.55;;;19.10;72.60;;;;;;4824651;29;20038;-80
2021/10/27 15:20:03;;;;;;;3.33;2.58;;;19.30;72.40;;;;;;4825668;29;20046;-82
2021/10/27 15:32:47;;;;;;;3.65;2.42;;;19.40;72.30;;;;;;4855180;29;20045;-81
2021/10/27 15:51:20;;;;;;;3.72;2.50;;;19.40;72.00;;;;;;4838835;29;20451;-82
2021/10/27 15:53:46;;;;;;;3.10;2.33;;;19.40;72.00;;;;;;4840521;29;20030;-81
2021/10/27 15:56:12;;;;;;;3.42;2.35;;;19.40;72.00;;;;;;4809836;29;20132;-81
2021/10/27 15:58:38;;;;;;;3.53;2.30;;;19.40;72.60;;;;;;4823386;29;20130;-81
2021/10/27 16:01:04;;;;;;;2.80;2.10;;;19.40;72.60;;;;;;4824759;29;20036;-81
2021/10/27 16:03:30;;;;;;;3.38;2.10;;;19.40;71.90;;;;;;4785505;29;20026;-80
2021/10/27 16:05:57;;;;;;;3.30;2.20;;;19.30;71.90;;;;;;4809775;29;20046;-81
2021/10/27 16:08:27;;;;;;;3.85;2.53;;;19.30;71.90;;;;;;4810115;29;20041;-81
2021/10/27 16:10:52;;;;;;;3.33;2.33;;;19.30;71.80;;;;;;4819649;29;20455;-81
2021/10/27 16:13:19;;;;;;;2.95;2.13;;;19.30;71.80;;;;;;4825413;29;20082;-81
2021/10/27 16:16:00;;;;;;;2.88;2.08;;;19.30;71.80;;;;;;4794503;29;20049;-81
2021/10/27 16:18:30;;;;;;;2.45;1.90;;;19.30;71.80;;;;;;4816024;29;20050;-81
2021/10/27 16:20:58;;;;;;;2.78;2.10;;;19.30;71.70;;;;;;4819474;29;20059;-82
2021/10/27 16:23:25;;;;;;;3.50;2.00;;;19.30;71.70;;;;;;4819079;29;20053;-80
2021/10/27 16:25:53;;;;;;;2.33;2.00;;;19.20;71.70;;;;;;4823144;29;20447;-83
2021/10/27 16:28:23;;;;;;;2.50;1.80;;;19.20;71.70;;;;;;4832157;29;20018;-81
2021/10/27 16:30:53;;;;;;;2.95;2.22;;;19.20;71.60;;;;;;4816185;29;20018;-80
2021/10/27 16:33:21;;;;;;;2.33;1.83;;;19.10;72.20;;;;;;4808351;29;20053;-80
2021/10/27 16:35:49;;;;;;;2.72;2.05;;;19.20;71.60;;;;;;4806086;29;20050;-81
2021/10/27 16:38:14;;;;;;;2.60;1.80;;;19.10;71.50;;;;;;4838609;29;20029;-81
2021/10/27 16:40:40;;;;;;;2.65;2.08;;;19.10;71.50;;;;;;4835940;29;20565;-81
2021/10/27 16:43:07;;;;;;;2.92;1.83;;;19.10;71.50;;;;;;4820417;29;20460;-82
2021/10/27 16:45:33;;;;;;;3.25;2.15;;;19.10;71.50;;;;;;4839384;29;20054;-83
2021/10/27 16:48:00;;;;;;;2.22;2.00;;;19.10;71.50;;;;;;4839665;29;20026;-82
2021/10/27 16:50:25;;;;;;;2.35;1.75;;;19.10;71.50;;;;;;4823250;29;20050;-82
2021/10/27 16:52:51;;;;;;;2.95;2.00;;;19.00;71.40;;;;;;4826586;29;20994;-81
2021/10/27 16:55:19;;;;;;;2.35;1.70;;;19.00;71.40;;;;;;4806385;29;20519;-82
2021/10/27 16:57:46;;;;;;;2.95;2.03;;;19.00;71.40;;;;;;4823279;29;20026;-82
2021/10/27 17:00:13;;;;;;;2.95;1.92;;;19.00;71.40;;;;;;4824138;29;20109;-83
2021/10/27 17:02:39;;;;;;;2.22;1.80;;;18.90;71.40;;;;;;4823716;29;20022;-84
2021/10/27 17:05:05;;;;;;;3.13;1.88;;;18.90;71.40;;;;;;4822975;29;20044;-82
2021/10/27 17:07:31;;;;;;;3.47;1.80;;;18.90;71.40;;;;;;4810654;29;20045;-82
2021/10/27 17:09:59;;;;;;;3.13;2.15;;;18.90;71.40;;;;;;4804923;29;20047;-81
2021/10/27 17:12:25;;;;;;;2.47;1.80;;;18.80;71.30;;;;;;4837405;29;20061;-81
2021/10/27 17:14:51;;;;;;;2.45;1.70;;;18.80;71.30;;;;;;4806518;29;20116;-81
2021/10/27 17:17:16;;;;;;;3.22;2.13;;;18.80;71.30;;;;;;4822882;29;20053;-79
2021/10/27 17:19:42;;;;;;;2.08;1.65;;;18.80;71.30;;;;;;4808117;29;20037;-84
2021/10/27 17:22:11;;;;;;;2.55;2.00;;;18.80;71.30;;;;;;4807430;29;21013;-83
2021/10/27 17:24:37;;;;;;;2.33;1.73;;;18.70;71.30;;;;;;4823844;29;20119;-84
2021/10/27 17:27:03;;;;;;;2.85;2.00;;;18.70;71.30;;;;;;4807775;29;20130;-84
2021/10/27 17:29:31;;;;;;;3.30;2.00;;;18.70;71.30;;;;;;4823134;29;20034;-83
2021/10/27 17:31:57;;;;;;;2.00;1.58;;;18.60;71.30;;;;;;4839345;29;20050;-82
2021/10/27 17:34:23;;;;;;;2.65;1.92;;;18.60;71.30;;;;;;4824090;29;20050;-83
2021/10/27 17:36:49;;;;;;;2.80;1.90;;;18.60;71.30;;;;;;4823242;29;20054;-82
2021/10/27 17:39:16;;;;;;;2.67;1.83;;;18.60;71.30;;;;;;4813164;29;20046;-84
2021/10/27 17:41:48;;;;;;;2.50;1.70;;;18.50;71.30;;;;;;4819911;29;20041;-83
2021/10/27 17:44:13;;;;;;;2.60;1.95;;;18.50;71.30;;;;;;4839930;29;20116;-84
2021/10/27 17:46:44;;;;;;;3.20;1.70;;;18.50;71.30;;;;;;4808628;29;20461;-87
2021/10/27 17:49:25;;;;;;;2.67;1.70;;;18.40;71.30;;;;;;4817241;29;20035;-82